createdAt,value
2024-02-01T00:02:00.220Z,4.40
2024-02-01T00:04:37.582Z,4.40
2024-02-01T00:07:07.147Z,4.50
2024-02-01T00:09:35.178Z,4.60
2024-02-01T00:12:03.285Z,4.70
2024-02-01T00:14:31.406Z,4.60
2024-02-01T00:16:59.408Z,4.50
2024-02-01T00:19:28.553Z,4.40
2024-02-01T00:21:56.388Z,4.50
2024-02-01T00:24:26.725Z,4.50
2024-02-01T00:26:54.714Z,4.60
2024-02-01T00:29:26.058Z,4.60
2024-02-01T00:31:54.144Z,4.80
2024-02-01T00:34:22.131Z,4.80
2024-02-01T00:36:50.154Z,4.80
2024-02-01T00:39:18.354Z,4.90
2024-02-01T00:41:47.720Z,4.90
2024-02-01T00:44:15.850Z,5.00
2024-02-01T00:46:43.880Z,4.90
2024-02-01T00:49:13.386Z,5.00
2024-02-01T00:51:41.543Z,4.90
2024-02-01T00:54:09.642Z,5.00
2024-02-01T00:56:37.748Z,5.00
2024-02-01T00:59:07.279Z,5.00
2024-02-01T01:01:35.297Z,5.00
2024-02-01T01:04:03.668Z,5.00
2024-02-01T01:06:31.770Z,5.10
2024-02-01T01:08:59.825Z,5.10
2024-02-01T01:11:28.047Z,5.10
2024-02-01T01:13:56.246Z,5.10
2024-02-01T01:16:25.716Z,5.10
2024-02-01T01:18:53.876Z,5.10
2024-02-01T01:21:22.281Z,5.30
2024-02-01T01:23:50.298Z,5.20
2024-02-01T01:26:22.608Z,5.10
2024-02-01T01:28:50.574Z,5.10
2024-02-01T01:31:18.611Z,5.10
2024-02-01T01:33:48.153Z,5.20
2024-02-01T01:36:16.205Z,5.20
2024-02-01T01:38:44.245Z,5.20
2024-02-01T01:41:12.269Z,5.20
2024-02-01T01:43:40.282Z,5.20
2024-02-01T01:46:08.704Z,5.20
2024-02-01T01:48:37.360Z,5.20
2024-02-01T01:51:07.702Z,5.30
2024-02-01T01:53:39.520Z,5.30
2024-02-01T01:56:08.732Z,5.20
2024-02-01T01:58:38.018Z,5.20
2024-02-01T02:01:07.717Z,5.20
2024-02-01T02:03:39.872Z,5.40
2024-02-01T02:06:09.468Z,5.30
2024-02-01T02:08:37.539Z,5.30
2024-02-01T02:11:06.431Z,5.30
2024-02-01T02:13:34.462Z,5.30
2024-02-01T02:16:02.926Z,5.40
2024-02-01T02:18:31.032Z,5.50
2024-02-01T02:21:01.419Z,5.40
2024-02-01T02:23:31.536Z,5.50
2024-02-01T02:25:59.459Z,5.50
2024-02-01T02:28:27.434Z,5.50
2024-02-01T02:30:57.060Z,5.50
2024-02-01T02:33:25.217Z,5.50
2024-02-01T02:35:53.248Z,5.40
2024-02-01T02:38:23.893Z,5.30
2024-02-01T02:40:53.350Z,5.20
2024-02-01T02:43:21.366Z,5.10
2024-02-01T02:45:49.495Z,5.00
2024-02-01T02:48:17.660Z,5.00
2024-02-01T02:50:45.785Z,5.00
2024-02-01T02:53:13.818Z,4.90
2024-02-01T02:55:41.933Z,4.70
2024-02-01T02:58:11.436Z,4.70
2024-02-01T03:00:39.477Z,4.60
2024-02-01T03:03:07.630Z,4.50
2024-02-01T03:05:36.492Z,4.50
2024-02-01T03:08:06.150Z,4.40
2024-02-01T03:10:34.499Z,4.40
2024-02-01T03:13:02.613Z,4.30
2024-02-01T03:15:32.470Z,4.30
2024-02-01T03:18:00.860Z,4.20
2024-02-01T03:20:29.250Z,4.30
2024-02-01T03:22:57.346Z,4.20
2024-02-01T03:25:29.870Z,4.30
2024-02-01T03:28:02.174Z,4.20
2024-02-01T03:30:33.334Z,4.20
2024-02-01T03:33:04.530Z,4.10
2024-02-01T03:35:33.366Z,4.10
2024-02-01T03:38:02.225Z,4.10
2024-02-01T03:40:30.311Z,4.10
2024-02-01T03:42:58.358Z,4.10
2024-02-01T03:45:26.422Z,4.00
2024-02-01T03:47:55.998Z,4.00
2024-02-01T03:50:24.734Z,4.10
2024-02-01T03:52:52.931Z,4.10
2024-02-01T03:55:21.938Z,4.10
2024-02-01T03:57:50.273Z,4.10
2024-02-01T04:00:29.843Z,4.10
2024-02-01T04:03:00.487Z,4.00
2024-02-01T04:05:29.718Z,4.10
2024-02-01T04:07:58.570Z,4.10
2024-02-01T04:10:26.692Z,4.00
2024-02-01T04:12:54.858Z,4.10
2024-02-01T04:15:22.928Z,4.10
2024-02-01T04:17:54.001Z,4.10
2024-02-01T04:20:23.625Z,4.20
2024-02-01T04:22:55.035Z,4.20
2024-02-01T04:25:24.480Z,4.30
2024-02-01T04:27:53.151Z,4.20
2024-02-01T04:30:22.182Z,4.20
2024-02-01T04:32:51.000Z,4.30
2024-02-01T04:35:19.684Z,4.30
2024-02-01T04:37:54.404Z,4.40
2024-02-01T04:40:23.551Z,4.40
2024-02-01T04:42:53.353Z,4.40
2024-02-01T04:45:21.846Z,4.50
2024-02-01T04:47:50.829Z,4.50
2024-02-01T04:50:19.162Z,4.50
2024-02-01T04:52:48.814Z,4.50
2024-02-01T04:55:17.286Z,4.50
2024-02-01T04:57:45.716Z,4.50
2024-02-01T05:00:19.349Z,4.60
2024-02-01T05:02:49.021Z,4.80
2024-02-01T05:05:19.149Z,4.70
2024-02-01T05:07:48.832Z,4.70
2024-02-01T05:10:17.061Z,4.80
2024-02-01T05:12:45.406Z,4.80
2024-02-01T05:15:14.387Z,4.90
2024-02-01T05:17:43.371Z,4.90
2024-02-01T05:20:13.109Z,4.90
2024-02-01T05:22:42.189Z,5.00
2024-02-01T05:25:17.409Z,5.00
2024-02-01T05:27:51.969Z,5.10
2024-02-01T05:30:21.806Z,5.10
2024-02-01T05:32:53.875Z,5.10
2024-02-01T05:35:27.599Z,5.10
2024-02-01T05:37:56.456Z,5.20
2024-02-01T05:40:26.240Z,5.30
2024-02-01T05:42:54.403Z,5.30
2024-02-01T05:45:23.640Z,5.40
2024-02-01T05:47:53.660Z,5.30
2024-02-01T05:50:22.024Z,5.40
2024-02-01T05:52:50.320Z,5.40
2024-02-01T05:55:18.441Z,5.50
2024-02-01T05:57:48.411Z,5.40
2024-02-01T06:00:21.445Z,5.50
2024-02-01T06:02:50.475Z,5.50
2024-02-01T06:05:23.852Z,5.50
2024-02-01T06:07:52.948Z,5.50
2024-02-01T06:10:24.206Z,5.50
2024-02-01T06:12:54.011Z,5.60
2024-02-01T06:15:22.317Z,5.50
2024-02-01T06:17:52.251Z,5.50
2024-02-01T06:20:20.319Z,5.60
2024-02-01T06:22:48.718Z,5.60
2024-02-01T06:25:16.849Z,5.60
2024-02-01T06:27:45.137Z,5.60
2024-02-01T06:30:14.864Z,5.60
2024-02-01T06:32:43.067Z,5.60
2024-02-01T06:35:18.702Z,5.50
2024-02-01T06:37:53.988Z,5.60
2024-02-01T06:40:38.633Z,5.60
2024-02-01T06:43:18.841Z,5.60
2024-02-01T06:45:59.218Z,5.60
2024-02-01T06:48:42.341Z,5.70
2024-02-01T06:51:23.033Z,5.70
2024-02-01T06:53:58.059Z,5.80
2024-02-01T06:56:45.651Z,5.80
2024-02-01T06:59:31.172Z,5.80
2024-02-01T07:02:12.710Z,5.70
2024-02-01T07:04:51.700Z,5.80
2024-02-01T07:07:26.945Z,5.70
2024-02-01T07:10:07.031Z,5.80
2024-02-01T07:12:45.300Z,5.70
2024-02-01T07:15:32.997Z,5.60
2024-02-01T07:18:08.396Z,5.70
2024-02-01T07:20:37.428Z,5.70
2024-02-01T07:23:27.191Z,5.80
2024-02-01T07:26:03.112Z,5.80
2024-02-01T07:28:50.010Z,5.80
2024-02-01T07:31:36.059Z,5.90
2024-02-01T07:34:22.914Z,6.00
2024-02-01T07:37:08.419Z,5.80
2024-02-01T07:39:53.965Z,5.90
2024-02-01T07:42:39.445Z,5.90
2024-02-01T07:45:25.634Z,5.90
2024-02-01T07:48:11.197Z,6.00
2024-02-01T07:50:58.099Z,6.00
2024-02-01T07:53:43.873Z,6.00
2024-02-01T07:56:29.397Z,6.10
2024-02-01T07:59:03.880Z,6.10
2024-02-01T08:01:39.505Z,6.00
2024-02-01T08:04:17.564Z,6.10
2024-02-01T08:07:05.109Z,6.20
2024-02-01T08:09:33.223Z,6.20
2024-02-01T08:12:07.442Z,6.30
2024-02-01T08:14:35.584Z,6.30
2024-02-01T08:17:06.043Z,6.30
2024-02-01T08:19:40.381Z,6.30
2024-02-01T08:22:11.355Z,6.30
2024-02-01T08:24:39.279Z,6.40
2024-02-01T08:27:09.167Z,6.50
2024-02-01T08:29:38.520Z,6.70
2024-02-01T08:32:07.874Z,6.70
2024-02-01T08:34:40.452Z,6.70
2024-02-01T08:37:10.892Z,6.80
2024-02-01T08:39:46.179Z,6.80
2024-02-01T08:42:14.835Z,6.90
2024-02-01T08:44:44.508Z,7.00
2024-02-01T08:47:14.699Z,7.00
2024-02-01T08:49:43.169Z,7.00
2024-02-01T08:52:15.423Z,7.00
2024-02-01T08:54:47.527Z,7.10
2024-02-01T08:57:18.094Z,7.20
2024-02-01T08:59:46.175Z,7.10
2024-02-01T09:02:16.837Z,7.10
2024-02-01T09:04:45.291Z,7.40
2024-02-01T09:07:15.276Z,7.80
2024-02-01T09:09:44.293Z,8.40
2024-02-01T09:12:17.595Z,8.30
2024-02-01T09:14:46.702Z,8.80
2024-02-01T09:17:14.727Z,9.40
2024-02-01T09:19:43.119Z,9.50
2024-02-01T09:22:11.130Z,9.40
2024-02-01T09:24:40.822Z,9.80
2024-02-01T09:27:10.147Z,9.90
2024-02-01T09:29:39.474Z,9.40
2024-02-01T09:32:08.007Z,9.30
2024-02-01T09:34:36.002Z,9.50
2024-02-01T09:37:04.271Z,9.80
2024-02-01T09:39:35.551Z,10.10
2024-02-01T09:42:12.929Z,10.30
2024-02-01T09:44:41.281Z,10.40
2024-02-01T09:47:10.231Z,10.10
2024-02-01T09:49:41.094Z,10.00
2024-02-01T09:52:11.065Z,9.60
2024-02-01T09:54:38.959Z,9.40
2024-02-01T09:57:16.113Z,8.70
2024-02-01T09:59:45.136Z,9.00
2024-02-01T10:02:14.073Z,9.20
2024-02-01T10:04:42.392Z,9.20
2024-02-01T10:07:11.458Z,8.90
2024-02-01T10:09:40.035Z,8.90
2024-02-01T10:12:10.242Z,8.80
2024-02-01T10:14:39.803Z,9.30
2024-02-01T10:17:08.106Z,9.20
2024-02-01T10:19:38.388Z,8.90
2024-02-01T10:22:11.991Z,8.90
2024-02-01T10:24:46.464Z,9.10
2024-02-01T10:27:16.347Z,9.40
2024-02-01T10:29:46.202Z,9.50
2024-02-01T10:32:16.169Z,9.30
2024-02-01T10:34:51.180Z,9.10
2024-02-01T10:37:20.802Z,8.50
2024-02-01T10:39:53.849Z,8.40
2024-02-01T10:42:32.106Z,8.60
2024-02-01T10:45:06.663Z,8.80
2024-02-01T10:47:44.317Z,8.60
2024-02-01T10:50:12.605Z,8.70
2024-02-01T10:52:42.109Z,8.80
2024-02-01T10:55:11.660Z,8.60
2024-02-01T10:57:43.445Z,8.40
2024-02-01T11:00:21.512Z,8.30
2024-02-01T11:02:53.587Z,8.40
2024-02-01T11:05:21.719Z,8.50
2024-02-01T11:07:51.126Z,8.40
2024-02-01T11:10:19.194Z,8.50
2024-02-01T11:12:55.494Z,8.50
2024-02-01T11:15:29.618Z,8.40
2024-02-01T11:18:02.593Z,8.30
2024-02-01T11:20:33.357Z,8.30
2024-02-01T11:23:06.556Z,8.30
2024-02-01T11:25:36.445Z,8.40
2024-02-01T11:28:12.966Z,8.30
2024-02-01T11:30:58.195Z,8.20
2024-02-01T11:33:29.409Z,8.30
2024-02-01T11:36:02.086Z,8.40
2024-02-01T11:38:30.196Z,8.50
2024-02-01T11:40:58.834Z,8.40
2024-02-01T11:43:28.162Z,8.40
2024-02-01T11:45:57.744Z,8.50
2024-02-01T11:48:25.819Z,8.50
2024-02-01T11:50:59.580Z,8.50
2024-02-01T11:53:29.118Z,8.40
2024-02-01T11:55:57.270Z,8.20
2024-02-01T11:58:27.035Z,8.10
2024-02-01T12:01:05.943Z,8.10
2024-02-01T12:03:48.820Z,8.10
2024-02-01T12:06:18.266Z,8.20
2024-02-01T12:08:47.462Z,8.20
2024-02-01T12:11:16.352Z,8.30
2024-02-01T12:13:48.209Z,8.30
2024-02-01T12:16:27.674Z,8.30
2024-02-01T12:19:01.356Z,8.30
2024-02-01T12:21:30.231Z,8.20
2024-02-01T12:23:59.544Z,8.20
2024-02-01T12:26:30.013Z,8.00
2024-02-01T12:28:59.024Z,7.90
2024-02-01T12:31:30.234Z,7.80
2024-02-01T12:33:58.310Z,7.90
2024-02-01T12:36:29.176Z,8.10
2024-02-01T12:38:57.372Z,8.10
2024-02-01T12:41:26.226Z,8.10
2024-02-01T12:43:54.305Z,8.10
2024-02-01T12:46:45.432Z,8.10
2024-02-01T12:49:14.864Z,8.00
2024-02-01T12:51:44.525Z,7.80
2024-02-01T12:54:13.537Z,7.60
2024-02-01T12:56:41.453Z,7.50
2024-02-01T12:59:11.491Z,7.50
2024-02-01T13:01:42.416Z,7.40
2024-02-01T13:04:12.417Z,7.40
2024-02-01T13:06:40.491Z,7.40
2024-02-01T13:09:09.993Z,7.40
2024-02-01T13:11:38.140Z,7.50
2024-02-01T13:14:10.239Z,7.50
2024-02-01T13:16:38.455Z,7.50
2024-02-01T13:19:09.782Z,7.50
2024-02-01T13:21:40.359Z,7.50
2024-02-01T13:24:08.462Z,7.60
2024-02-01T13:26:37.764Z,7.50
2024-02-01T13:29:07.738Z,7.60
2024-02-01T13:31:39.565Z,7.60
2024-02-01T13:34:07.523Z,7.70
2024-02-01T13:36:35.513Z,7.80
2024-02-01T13:41:34.821Z,8.00
2024-02-01T13:44:02.774Z,7.90
2024-02-01T13:46:30.716Z,7.80
2024-02-01T13:48:58.835Z,7.60
2024-02-01T13:51:26.948Z,7.60
2024-02-01T13:53:54.914Z,7.60
2024-02-01T13:56:24.568Z,7.60
2024-02-01T13:58:52.485Z,7.60
2024-02-01T14:01:21.592Z,7.70
2024-02-01T14:03:49.712Z,7.70
2024-02-01T14:06:17.707Z,7.60
2024-02-01T14:08:45.668Z,7.60
2024-02-01T14:11:13.965Z,7.60
2024-02-01T14:13:43.273Z,7.50
2024-02-01T14:16:11.656Z,7.50
2024-02-01T14:18:39.734Z,7.50
2024-02-01T14:21:09.950Z,7.40
2024-02-01T14:23:38.040Z,7.40
2024-02-01T14:26:06.740Z,7.40
2024-02-01T14:28:34.606Z,7.40
2024-02-01T14:31:05.887Z,7.40
2024-02-01T14:33:34.041Z,7.50
2024-02-01T14:36:02.181Z,7.40
2024-02-01T14:38:30.246Z,7.30
2024-02-01T14:40:58.225Z,7.30
2024-02-01T14:43:26.335Z,7.30
2024-02-01T14:45:54.919Z,7.40
2024-02-01T14:48:24.365Z,7.40
2024-02-01T14:50:52.372Z,7.50
2024-02-01T14:53:20.416Z,7.50
2024-02-01T14:55:48.544Z,7.40
2024-02-01T14:58:16.585Z,7.40
2024-02-01T15:00:44.929Z,7.50
2024-02-01T15:03:13.137Z,7.30
2024-02-01T15:05:42.490Z,7.30
2024-02-01T15:08:11.571Z,7.30
2024-02-01T15:10:40.269Z,7.20
2024-02-01T15:13:10.614Z,7.30
2024-02-01T15:15:38.988Z,7.30
2024-02-01T15:18:08.460Z,7.30
2024-02-01T15:20:36.831Z,7.30
2024-02-01T15:23:09.839Z,7.30
2024-02-01T15:25:42.467Z,7.20
2024-02-01T15:28:14.118Z,7.20
2024-02-01T15:30:49.473Z,7.30
2024-02-01T15:33:21.302Z,7.20
2024-02-01T15:35:49.841Z,7.20
2024-02-01T15:38:20.275Z,7.20
2024-02-01T15:40:48.289Z,7.00
2024-02-01T15:43:16.231Z,7.00
2024-02-01T15:45:44.495Z,7.00
2024-02-01T15:48:12.911Z,7.10
2024-02-01T15:50:41.054Z,7.00
2024-02-01T15:53:09.650Z,7.00
2024-02-01T15:55:41.401Z,7.00
2024-02-01T15:58:09.666Z,7.00
2024-02-01T16:00:37.752Z,7.00
2024-02-01T16:03:05.967Z,7.00
2024-02-01T16:06:05.029Z,7.00
2024-02-01T16:08:43.535Z,6.90
2024-02-01T16:11:15.735Z,6.90
2024-02-01T16:13:47.808Z,6.80
2024-02-01T16:16:28.721Z,6.80
2024-02-01T16:18:57.840Z,6.80
2024-02-01T16:21:28.137Z,6.80
2024-02-01T16:23:56.890Z,6.70
2024-02-01T16:26:26.515Z,6.60
2024-02-01T16:28:56.868Z,6.50
2024-02-01T16:31:26.332Z,6.50
2024-02-01T16:33:56.861Z,6.50
2024-02-01T16:36:53.530Z,6.50
2024-02-01T16:39:22.950Z,6.40
2024-02-01T16:41:58.058Z,6.40
2024-02-01T16:44:43.808Z,6.30
2024-02-01T16:47:15.971Z,6.30
2024-02-01T16:49:44.708Z,6.40
2024-02-01T16:52:28.062Z,6.40
2024-02-01T16:54:56.137Z,6.50
2024-02-01T16:57:25.470Z,6.50
2024-02-01T16:59:53.677Z,6.50
2024-02-01T17:02:50.136Z,6.50
2024-02-01T17:05:27.615Z,6.50
2024-02-01T17:07:56.745Z,6.40
2024-02-01T17:10:38.711Z,6.30
2024-02-01T17:13:09.188Z,6.30
2024-02-01T17:15:38.037Z,6.30
2024-02-01T17:18:07.692Z,6.20
2024-02-01T17:20:36.360Z,6.20
2024-02-01T17:23:04.396Z,6.20
2024-02-01T17:25:55.535Z,6.20
2024-02-01T17:28:41.600Z,6.30
2024-02-01T17:31:15.244Z,6.30
2024-02-01T17:33:56.768Z,6.30
2024-02-01T17:36:27.100Z,6.20
2024-02-01T17:38:55.273Z,6.30
2024-02-01T17:41:23.630Z,6.30
2024-02-01T17:43:53.276Z,6.30
2024-02-01T17:46:52.276Z,6.40
2024-02-01T17:49:48.364Z,6.40
2024-02-01T17:52:47.293Z,6.40
2024-02-01T17:55:22.342Z,6.50
2024-02-01T17:57:56.584Z,6.50
2024-02-01T18:00:28.161Z,6.50
2024-02-01T18:02:58.542Z,6.40
2024-02-01T18:05:34.668Z,6.50
2024-02-01T18:08:02.929Z,6.40
2024-02-01T18:10:39.227Z,6.40
2024-02-01T18:13:08.842Z,6.40
2024-02-01T18:16:06.651Z,6.20
2024-02-01T18:18:37.984Z,6.10
2024-02-01T18:21:09.805Z,6.10
2024-02-01T18:23:40.628Z,6.00
2024-02-01T18:26:09.261Z,5.90
2024-02-01T18:28:38.800Z,5.90
2024-02-01T18:31:14.011Z,5.90
2024-02-01T18:33:44.467Z,5.90
2024-02-01T18:36:23.244Z,5.80
2024-02-01T18:39:05.772Z,5.80
2024-02-01T18:41:34.953Z,5.80
2024-02-01T18:44:28.309Z,5.80
2024-02-01T18:47:01.383Z,5.70
2024-02-01T18:49:35.552Z,5.70
2024-02-01T18:52:07.355Z,5.60
2024-02-01T18:54:37.194Z,5.70
2024-02-01T18:57:08.152Z,5.70
2024-02-01T18:59:54.267Z,5.80
2024-02-01T19:02:55.237Z,6.00
2024-02-01T19:05:23.598Z,6.10
2024-02-01T19:08:02.801Z,6.10
2024-02-01T19:10:44.591Z,6.00
2024-02-01T19:13:52.714Z,6.00
2024-02-01T19:16:22.581Z,6.00
2024-02-01T19:18:59.419Z,5.90
2024-02-01T19:21:31.631Z,5.80
2024-02-01T19:24:00.621Z,5.80
2024-02-01T19:26:32.104Z,5.80
2024-02-01T19:29:01.608Z,5.80
2024-02-01T19:31:30.400Z,5.80
2024-02-01T19:34:02.706Z,5.80
2024-02-01T19:36:33.406Z,5.70
2024-02-01T19:39:13.573Z,5.60
2024-02-01T19:41:42.791Z,5.60
2024-02-01T19:44:11.183Z,5.60
2024-02-01T19:46:40.855Z,5.60
2024-02-01T19:49:10.892Z,5.60
2024-02-01T19:51:40.444Z,5.50
2024-02-01T19:54:08.684Z,5.50
2024-02-01T19:56:36.961Z,5.50
2024-02-01T19:59:06.205Z,5.70
2024-02-01T20:01:34.291Z,5.60
2024-02-01T20:04:02.466Z,5.50
2024-02-01T20:06:32.466Z,5.50
2024-02-01T20:09:02.597Z,5.50
2024-02-01T20:11:31.561Z,5.50
2024-02-01T20:14:02.714Z,5.50
2024-02-01T20:16:31.738Z,5.60
2024-02-01T20:19:00.271Z,5.70
2024-02-01T20:21:36.769Z,5.70
2024-02-01T20:24:07.505Z,5.80
2024-02-01T20:26:35.820Z,5.80
2024-02-01T20:29:04.916Z,5.90
2024-02-01T20:31:34.292Z,6.00
2024-02-01T20:34:06.812Z,6.00
2024-02-01T20:36:55.704Z,6.00
2024-02-01T20:39:38.003Z,5.90
2024-02-01T20:42:13.814Z,5.80
2024-02-01T20:44:42.229Z,5.80
2024-02-01T20:47:14.066Z,5.70
2024-02-01T20:49:43.663Z,5.60
2024-02-01T20:52:27.799Z,5.60
2024-02-01T20:55:11.088Z,5.60
2024-02-01T20:57:41.269Z,5.50
2024-02-01T21:00:20.167Z,5.60
2024-02-01T21:03:02.511Z,5.60
2024-02-01T21:05:39.350Z,5.50
2024-02-01T21:08:23.101Z,5.50
2024-02-01T21:10:52.684Z,5.50
2024-02-01T21:13:22.978Z,5.50
2024-02-01T21:15:54.861Z,5.40
2024-02-01T21:18:25.076Z,5.40
2024-02-01T21:20:54.150Z,5.40
2024-02-01T21:23:48.694Z,5.40
2024-02-01T21:26:31.191Z,5.40
2024-02-01T21:29:01.314Z,5.30
2024-02-01T21:31:51.499Z,5.20
2024-02-01T21:34:22.212Z,5.30
2024-02-01T21:37:01.006Z,5.30
2024-02-01T21:39:46.779Z,5.20
2024-02-01T21:42:43.996Z,5.20
2024-02-01T21:45:12.009Z,5.20
2024-02-01T21:47:40.464Z,5.10
2024-02-01T21:50:09.371Z,5.20
2024-02-01T21:52:37.470Z,5.20
2024-02-01T21:55:07.582Z,5.20
2024-02-01T21:57:35.825Z,5.20
2024-02-01T22:00:05.622Z,5.10
2024-02-01T22:02:33.675Z,5.10
2024-02-01T22:05:01.642Z,5.00
2024-02-01T22:07:30.059Z,5.10
2024-02-01T22:09:58.480Z,5.10
2024-02-01T22:12:27.960Z,5.10
2024-02-01T22:14:58.127Z,5.10
2024-02-01T22:17:27.177Z,5.10
2024-02-01T22:19:55.578Z,5.00
2024-02-01T22:22:23.575Z,4.90
2024-02-01T22:24:51.621Z,4.90
2024-02-01T22:27:19.618Z,4.90
2024-02-01T22:29:49.078Z,4.90
2024-02-01T22:32:17.097Z,4.90
2024-02-01T22:34:45.241Z,5.00
2024-02-01T22:37:13.706Z,5.00
2024-02-01T22:39:41.810Z,4.90
2024-02-01T22:42:09.862Z,4.90
2024-02-01T22:44:37.914Z,4.80
2024-02-01T22:47:07.543Z,4.90
2024-02-01T22:49:35.764Z,4.80
2024-02-01T22:52:04.000Z,4.70
2024-02-01T22:54:32.283Z,4.60
2024-02-01T22:57:00.323Z,4.60
2024-02-01T22:59:28.797Z,4.50
2024-02-01T23:01:57.807Z,4.60
2024-02-01T23:04:27.146Z,4.50
2024-02-01T23:06:55.577Z,4.50
2024-02-01T23:09:23.965Z,4.40
2024-02-01T23:11:52.106Z,4.50
2024-02-01T23:14:20.080Z,4.40
2024-02-01T23:16:47.973Z,4.50
2024-02-01T23:19:16.075Z,4.40
2024-02-01T23:21:46.155Z,4.30
2024-02-01T23:24:14.788Z,4.30
2024-02-01T23:26:42.756Z,4.30
2024-02-01T23:29:11.622Z,4.30
2024-02-01T23:31:39.586Z,4.20
2024-02-01T23:34:07.828Z,4.30
2024-02-01T23:36:36.045Z,4.30
2024-02-01T23:39:05.549Z,4.40
2024-02-01T23:41:33.551Z,4.50
2024-02-01T23:44:01.603Z,4.50
2024-02-01T23:46:30.912Z,4.50
2024-02-01T23:48:59.039Z,4.50
2024-02-01T23:51:27.150Z,4.50
2024-02-01T23:53:55.245Z,4.50
2024-02-01T23:56:24.762Z,4.50
2024-02-01T23:58:52.802Z,4.40
